sensor_id;sensor_type;location;lat;lon;timestamp;P1;durP1;ratioP1;P2;durP2;ratioP2
40537;SDS011;27925;41.874;12.526;2023-12-07T00:00:14;25.33;;;17.30;;
40537;SDS011;27925;41.874;12.526;2023-12-07T00:02:40;25.33;;;17.90;;
40537;SDS011;27925;41.874;12.526;2023-12-07T00:05:06;25.23;;;17.40;;
40537;SDS011;27925;41.874;12.526;2023-12-07T00:07:32;24.42;;;17.42;;
40537;SDS011;27925;41.874;12.526;2023-12-07T00:09:58;25.95;;;17.95;;
40537;SDS011;27925;41.874;12.526;2023-12-07T00:12:24;29.90;;;17.88;;
40537;SDS011;27925;41.874;12.526;2023-12-07T00:14:49;25.42;;;17.63;;
40537;SDS011;27925;41.874;12.526;2023-12-07T00:17:15;25.95;;;17.52;;
40537;SDS011;27925;41.874;12.526;2023-12-07T00:19:41;26.50;;;18.35;;
40537;SDS011;27925;41.874;12.526;2023-12-07T00:22:06;26.85;;;18.08;;
40537;SDS011;27925;41.874;12.526;2023-12-07T00:24:32;25.40;;;18.02;;
40537;SDS011;27925;41.874;12.526;2023-12-07T00:26:58;26.00;;;17.02;;
40537;SDS011;27925;41.874;12.526;2023-12-07T00:29:23;25.48;;;18.15;;
40537;SDS011;27925;41.874;12.526;2023-12-07T00:31:49;26.00;;;17.50;;
40537;SDS011;27925;41.874;12.526;2023-12-07T00:34:16;26.00;;;17.27;;
40537;SDS011;27925;41.874;12.526;2023-12-07T00:36:42;24.25;;;16.88;;
40537;SDS011;27925;41.874;12.526;2023-12-07T00:39:08;26.40;;;17.80;;
40537;SDS011;27925;41.874;12.526;2023-12-07T00:41:34;26.05;;;17.92;;
40537;SDS011;27925;41.874;12.526;2023-12-07T00:44:00;25.88;;;18.00;;
40537;SDS011;27925;41.874;12.526;2023-12-07T00:46:25;26.05;;;17.20;;
40537;SDS011;27925;41.874;12.526;2023-12-07T00:48:51;24.73;;;17.98;;
40537;SDS011;27925;41.874;12.526;2023-12-07T00:51:17;23.30;;;17.65;;
40537;SDS011;27925;41.874;12.526;2023-12-07T00:53:42;25.80;;;18.45;;
40537;SDS011;27925;41.874;12.526;2023-12-07T00:56:08;25.27;;;18.33;;
40537;SDS011;27925;41.874;12.526;2023-12-07T00:58:34;24.40;;;17.10;;
40537;SDS011;27925;41.874;12.526;2023-12-07T01:01:00;23.63;;;17.52;;
40537;SDS011;27925;41.874;12.526;2023-12-07T01:03:26;25.25;;;18.05;;
40537;SDS011;27925;41.874;12.526;2023-12-07T01:05:52;26.70;;;18.08;;
40537;SDS011;27925;41.874;12.526;2023-12-07T01:08:18;27.05;;;17.17;;
40537;SDS011;27925;41.874;12.526;2023-12-07T01:10:43;24.88;;;16.38;;
40537;SDS011;27925;41.874;12.526;2023-12-07T01:13:09;23.83;;;17.23;;
40537;SDS011;27925;41.874;12.526;2023-12-07T01:15:35;24.15;;;17.33;;
40537;SDS011;27925;41.874;12.526;2023-12-07T01:18:01;22.67;;;17.10;;
40537;SDS011;27925;41.874;12.526;2023-12-07T01:20:26;22.77;;;16.65;;
40537;SDS011;27925;41.874;12.526;2023-12-07T01:22:52;24.08;;;17.75;;
40537;SDS011;27925;41.874;12.526;2023-12-07T01:25:18;32.20;;;21.30;;
40537;SDS011;27925;41.874;12.526;2023-12-07T01:27:46;23.20;;;17.23;;
40537;SDS011;27925;41.874;12.526;2023-12-07T01:30:13;22.83;;;17.25;;
40537;SDS011;27925;41.874;12.526;2023-12-07T01:32:39;23.50;;;17.80;;
40537;SDS011;27925;41.874;12.526;2023-12-07T01:35:05;27.23;;;18.77;;
40537;SDS011;27925;41.874;12.526;2023-12-07T01:37:31;31.92;;;21.13;;
40537;SDS011;27925;41.874;12.526;2023-12-07T01:39:57;23.58;;;16.95;;
40537;SDS011;27925;41.874;12.526;2023-12-07T01:42:22;23.30;;;16.77;;
40537;SDS011;27925;41.874;12.526;2023-12-07T01:44:48;28.85;;;21.15;;
40537;SDS011;27925;41.874;12.526;2023-12-07T01:47:14;25.73;;;17.52;;
40537;SDS011;27925;41.874;12.526;2023-12-07T01:49:40;24.58;;;17.65;;
40537;SDS011;27925;41.874;12.526;2023-12-07T01:52:06;28.33;;;20.55;;
40537;SDS011;27925;41.874;12.526;2023-12-07T01:54:35;23.40;;;16.58;;
40537;SDS011;27925;41.874;12.526;2023-12-07T01:57:01;30.83;;;21.23;;
40537;SDS011;27925;41.874;12.526;2023-12-07T01:59:27;24.88;;;17.40;;
40537;SDS011;27925;41.874;12.526;2023-12-07T02:01:53;24.23;;;16.90;;
40537;SDS011;27925;41.874;12.526;2023-12-07T02:04:19;26.85;;;17.92;;
40537;SDS011;27925;41.874;12.526;2023-12-07T02:06:44;25.95;;;18.58;;
40537;SDS011;27925;41.874;12.526;2023-12-07T02:09:10;28.85;;;20.20;;
40537;SDS011;27925;41.874;12.526;2023-12-07T02:11:36;26.08;;;17.95;;
40537;SDS011;27925;41.874;12.526;2023-12-07T02:14:02;26.52;;;17.52;;
40537;SDS011;27925;41.874;12.526;2023-12-07T02:16:32;31.80;;;21.40;;
40537;SDS011;27925;41.874;12.526;2023-12-07T02:22:03;25.05;;;17.58;;
40537;SDS011;27925;41.874;12.526;2023-12-07T02:27:34;26.10;;;17.83;;
40537;SDS011;27925;41.874;12.526;2023-12-07T02:30:00;31.00;;;20.35;;
40537;SDS011;27925;41.874;12.526;2023-12-07T02:32:25;26.92;;;16.75;;
40537;SDS011;27925;41.874;12.526;2023-12-07T02:34:51;30.30;;;20.27;;
40537;SDS011;27925;41.874;12.526;2023-12-07T02:37:17;24.10;;;16.88;;
40537;SDS011;27925;41.874;12.526;2023-12-07T02:39:44;30.17;;;21.20;;
40537;SDS011;27925;41.874;12.526;2023-12-07T02:42:10;27.75;;;16.83;;
40537;SDS011;27925;41.874;12.526;2023-12-07T02:44:38;26.08;;;17.55;;
40537;SDS011;27925;41.874;12.526;2023-12-07T02:47:05;22.42;;;16.48;;
40537;SDS011;27925;41.874;12.526;2023-12-07T02:49:31;29.45;;;19.88;;
40537;SDS011;27925;41.874;12.526;2023-12-07T02:51:56;25.42;;;17.25;;
40537;SDS011;27925;41.874;12.526;2023-12-07T02:54:22;24.95;;;16.83;;
40537;SDS011;27925;41.874;12.526;2023-12-07T02:56:48;23.05;;;16.90;;
40537;SDS011;27925;41.874;12.526;2023-12-07T02:59:14;26.48;;;17.27;;
40537;SDS011;27925;41.874;12.526;2023-12-07T03:01:39;31.13;;;20.35;;
40537;SDS011;27925;41.874;12.526;2023-12-07T03:04:05;24.23;;;17.92;;
40537;SDS011;27925;41.874;12.526;2023-12-07T03:06:31;30.38;;;19.15;;
40537;SDS011;27925;41.874;12.526;2023-12-07T03:08:56;22.40;;;16.25;;
40537;SDS011;27925;41.874;12.526;2023-12-07T03:11:22;24.77;;;17.13;;
40537;SDS011;27925;41.874;12.526;2023-12-07T03:13:49;33.20;;;20.42;;
40537;SDS011;27925;41.874;12.526;2023-12-07T03:16:14;22.98;;;17.23;;
40537;SDS011;27925;41.874;12.526;2023-12-07T03:18:40;31.55;;;20.17;;
40537;SDS011;27925;41.874;12.526;2023-12-07T03:21:06;25.10;;;17.98;;
40537;SDS011;27925;41.874;12.526;2023-12-07T03:23:32;31.80;;;19.08;;
40537;SDS011;27925;41.874;12.526;2023-12-07T03:25:58;24.83;;;17.15;;
40537;SDS011;27925;41.874;12.526;2023-12-07T03:28:23;30.33;;;19.58;;
40537;SDS011;27925;41.874;12.526;2023-12-07T03:30:49;30.38;;;20.23;;
40537;SDS011;27925;41.874;12.526;2023-12-07T03:33:14;24.15;;;16.02;;
40537;SDS011;27925;41.874;12.526;2023-12-07T03:35:40;30.13;;;19.67;;
40537;SDS011;27925;41.874;12.526;2023-12-07T03:38:06;23.48;;;16.23;;
40537;SDS011;27925;41.874;12.526;2023-12-07T03:40:32;24.33;;;15.95;;
40537;SDS011;27925;41.874;12.526;2023-12-07T03:42:58;25.15;;;17.33;;
40537;SDS011;27925;41.874;12.526;2023-12-07T03:45:24;30.45;;;19.70;;
40537;SDS011;27925;41.874;12.526;2023-12-07T03:47:49;23.73;;;15.93;;
40537;SDS011;27925;41.874;12.526;2023-12-07T03:50:15;27.55;;;18.67;;
40537;SDS011;27925;41.874;12.526;2023-12-07T03:52:41;29.73;;;19.90;;
40537;SDS011;27925;41.874;12.526;2023-12-07T03:55:07;25.08;;;16.90;;
40537;SDS011;27925;41.874;12.526;2023-12-07T03:57:33;29.73;;;19.00;;
40537;SDS011;27925;41.874;12.526;2023-12-07T03:59:59;24.55;;;16.52;;
40537;SDS011;27925;41.874;12.526;2023-12-07T04:02:25;22.15;;;15.73;;
40537;SDS011;27925;41.874;12.526;2023-12-07T04:04:50;29.58;;;18.67;;
40537;SDS011;27925;41.874;12.526;2023-12-07T04:07:16;24.15;;;15.85;;
40537;SDS011;27925;41.874;12.526;2023-12-07T04:09:42;29.75;;;19.38;;
40537;SDS011;27925;41.874;12.526;2023-12-07T04:12:08;25.58;;;16.55;;
40537;SDS011;27925;41.874;12.526;2023-12-07T04:14:33;29.45;;;18.83;;
40537;SDS011;27925;41.874;12.526;2023-12-07T04:16:59;24.48;;;16.45;;
40537;SDS011;27925;41.874;12.526;2023-12-07T04:19:25;27.98;;;17.83;;
40537;SDS011;27925;41.874;12.526;2023-12-07T04:21:51;22.15;;;15.95;;
40537;SDS011;27925;41.874;12.526;2023-12-07T04:24:17;23.45;;;15.00;;
40537;SDS011;27925;41.874;12.526;2023-12-07T04:26:42;28.10;;;18.48;;
40537;SDS011;27925;41.874;12.526;2023-12-07T04:29:09;22.67;;;15.52;;
40537;SDS011;27925;41.874;12.526;2023-12-07T04:31:34;25.02;;;17.40;;
40537;SDS011;27925;41.874;12.526;2023-12-07T04:34:01;18.90;;;13.60;;
40537;SDS011;27925;41.874;12.526;2023-12-07T04:36:26;21.13;;;15.20;;
40537;SDS011;27925;41.874;12.526;2023-12-07T04:38:52;27.52;;;17.42;;
40537;SDS011;27925;41.874;12.526;2023-12-07T04:41:18;29.02;;;16.75;;
40537;SDS011;27925;41.874;12.526;2023-12-07T04:43:43;25.60;;;16.52;;
40537;SDS011;27925;41.874;12.526;2023-12-07T04:46:09;20.20;;;14.50;;
40537;SDS011;27925;41.874;12.526;2023-12-07T04:48:35;27.27;;;16.48;;
40537;SDS011;27925;41.874;12.526;2023-12-07T04:51:00;25.17;;;16.92;;
40537;SDS011;27925;41.874;12.526;2023-12-07T04:53:26;23.23;;;16.13;;
40537;SDS011;27925;41.874;12.526;2023-12-07T04:55:52;21.42;;;14.27;;
40537;SDS011;27925;41.874;12.526;2023-12-07T04:58:17;24.30;;;16.17;;
40537;SDS011;27925;41.874;12.526;2023-12-07T05:00:43;25.45;;;17.25;;
40537;SDS011;27925;41.874;12.526;2023-12-07T05:03:09;25.75;;;16.67;;
40537;SDS011;27925;41.874;12.526;2023-12-07T05:05:35;24.75;;;16.10;;
40537;SDS011;27925;41.874;12.526;2023-12-07T05:08:01;23.50;;;15.32;;
40537;SDS011;27925;41.874;12.526;2023-12-07T05:10:27;20.75;;;14.63;;
40537;SDS011;27925;41.874;12.526;2023-12-07T05:12:52;24.67;;;15.57;;
40537;SDS011;27925;41.874;12.526;2023-12-07T05:15:18;21.80;;;15.32;;
40537;SDS011;27925;41.874;12.526;2023-12-07T05:17:44;22.08;;;14.75;;
40537;SDS011;27925;41.874;12.526;2023-12-07T05:20:09;22.90;;;15.20;;
40537;SDS011;27925;41.874;12.526;2023-12-07T05:22:37;23.73;;;16.38;;
40537;SDS011;27925;41.874;12.526;2023-12-07T05:25:03;20.08;;;14.15;;
40537;SDS011;27925;41.874;12.526;2023-12-07T05:27:30;23.17;;;15.13;;
40537;SDS011;27925;41.874;12.526;2023-12-07T05:29:55;24.45;;;15.27;;
40537;SDS011;27925;41.874;12.526;2023-12-07T05:32:21;24.92;;;14.48;;
40537;SDS011;27925;41.874;12.526;2023-12-07T05:34:47;23.67;;;15.60;;
40537;SDS011;27925;41.874;12.526;2023-12-07T05:37:13;25.42;;;15.82;;
40537;SDS011;27925;41.874;12.526;2023-12-07T05:39:38;20.38;;;14.30;;
40537;SDS011;27925;41.874;12.526;2023-12-07T05:42:04;24.70;;;14.55;;
40537;SDS011;27925;41.874;12.526;2023-12-07T05:44:30;25.27;;;15.90;;
40537;SDS011;27925;41.874;12.526;2023-12-07T05:46:56;24.33;;;15.00;;
40537;SDS011;27925;41.874;12.526;2023-12-07T05:49:22;23.23;;;15.32;;
40537;SDS011;27925;41.874;12.526;2023-12-07T05:51:48;29.13;;;15.50;;
40537;SDS011;27925;41.874;12.526;2023-12-07T05:54:14;21.48;;;15.02;;
40537;SDS011;27925;41.874;12.526;2023-12-07T05:56:40;29.20;;;15.82;;
40537;SDS011;27925;41.874;12.526;2023-12-07T05:59:06;33.78;;;15.75;;
40537;SDS011;27925;41.874;12.526;2023-12-07T06:01:32;25.55;;;15.00;;
40537;SDS011;27925;41.874;12.526;2023-12-07T06:03:58;27.38;;;15.70;;
40537;SDS011;27925;41.874;12.526;2023-12-07T06:06:24;32.25;;;16.13;;
40537;SDS011;27925;41.874;12.526;2023-12-07T06:08:50;24.00;;;13.85;;
40537;SDS011;27925;41.874;12.526;2023-12-07T06:11:16;26.65;;;15.93;;
40537;SDS011;27925;41.874;12.526;2023-12-07T06:13:41;27.00;;;14.27;;
40537;SDS011;27925;41.874;12.526;2023-12-07T06:16:11;18.58;;;12.18;;
40537;SDS011;27925;41.874;12.526;2023-12-07T06:18:38;24.30;;;15.20;;
40537;SDS011;27925;41.874;12.526;2023-12-07T06:21:04;26.83;;;15.32;;
40537;SDS011;27925;41.874;12.526;2023-12-07T06:23:29;22.98;;;14.25;;
40537;SDS011;27925;41.874;12.526;2023-12-07T06:25:55;24.35;;;13.85;;
40537;SDS011;27925;41.874;12.526;2023-12-07T06:28:21;18.05;;;11.55;;
40537;SDS011;27925;41.874;12.526;2023-12-07T06:30:46;22.80;;;14.20;;
40537;SDS011;27925;41.874;12.526;2023-12-07T06:33:12;21.20;;;13.68;;
40537;SDS011;27925;41.874;12.526;2023-12-07T06:35:38;23.55;;;14.30;;
40537;SDS011;27925;41.874;12.526;2023-12-07T06:38:03;24.50;;;15.27;;
40537;SDS011;27925;41.874;12.526;2023-12-07T06:40:29;16.55;;;11.48;;
40537;SDS011;27925;41.874;12.526;2023-12-07T06:42:56;21.75;;;14.35;;
40537;SDS011;27925;41.874;12.526;2023-12-07T06:45:22;24.98;;;14.45;;
40537;SDS011;27925;41.874;12.526;2023-12-07T06:47:47;20.65;;;12.13;;
40537;SDS011;27925;41.874;12.526;2023-12-07T06:50:13;22.45;;;14.55;;
40537;SDS011;27925;41.874;12.526;2023-12-07T06:52:39;19.00;;;12.00;;
40537;SDS011;27925;41.874;12.526;2023-12-07T06:55:05;28.23;;;14.57;;
40537;SDS011;27925;41.874;12.526;2023-12-07T06:57:32;18.58;;;11.60;;
40537;SDS011;27925;41.874;12.526;2023-12-07T06:59:58;17.00;;;11.73;;
40537;SDS011;27925;41.874;12.526;2023-12-07T07:02:24;16.73;;;11.77;;
40537;SDS011;27925;41.874;12.526;2023-12-07T07:04:49;20.55;;;11.52;;
40537;SDS011;27925;41.874;12.526;2023-12-07T07:07:15;18.92;;;11.68;;
40537;SDS011;27925;41.874;12.526;2023-12-07T07:09:41;19.00;;;12.27;;
40537;SDS011;27925;41.874;12.526;2023-12-07T07:12:07;15.90;;;10.98;;
40537;SDS011;27925;41.874;12.526;2023-12-07T07:14:33;16.75;;;11.18;;
40537;SDS011;27925;41.874;12.526;2023-12-07T07:16:59;19.83;;;11.80;;
40537;SDS011;27925;41.874;12.526;2023-12-07T07:19:25;19.08;;;11.88;;
40537;SDS011;27925;41.874;12.526;2023-12-07T07:21:51;18.77;;;11.27;;
40537;SDS011;27925;41.874;12.526;2023-12-07T07:24:16;18.73;;;11.80;;
40537;SDS011;27925;41.874;12.526;2023-12-07T07:26:42;20.58;;;11.93;;
40537;SDS011;27925;41.874;12.526;2023-12-07T07:29:08;21.45;;;11.43;;
40537;SDS011;27925;41.874;12.526;2023-12-07T07:31:33;17.33;;;11.93;;
40537;SDS011;27925;41.874;12.526;2023-12-07T07:34:00;18.20;;;12.38;;
40537;SDS011;27925;41.874;12.526;2023-12-07T07:36:26;22.65;;;11.80;;
40537;SDS011;27925;41.874;12.526;2023-12-07T07:38:52;21.95;;;12.57;;
40537;SDS011;27925;41.874;12.526;2023-12-07T07:41:17;17.15;;;12.20;;
40537;SDS011;27925;41.874;12.526;2023-12-07T07:43:43;18.13;;;12.10;;
40537;SDS011;27925;41.874;12.526;2023-12-07T07:46:10;21.67;;;12.38;;
40537;SDS011;27925;41.874;12.526;2023-12-07T07:48:35;21.88;;;12.23;;
40537;SDS011;27925;41.874;12.526;2023-12-07T07:51:02;24.88;;;12.48;;
40537;SDS011;27925;41.874;12.526;2023-12-07T07:53:28;24.85;;;13.27;;
40537;SDS011;27925;41.874;12.526;2023-12-07T07:55:54;22.90;;;13.05;;
40537;SDS011;27925;41.874;12.526;2023-12-07T07:58:20;29.60;;;14.77;;
40537;SDS011;27925;41.874;12.526;2023-12-07T08:00:46;19.67;;;12.48;;
40537;SDS011;27925;41.874;12.526;2023-12-07T08:03:12;23.38;;;12.90;;
40537;SDS011;27925;41.874;12.526;2023-12-07T08:05:38;27.00;;;13.60;;
40537;SDS011;27925;41.874;12.526;2023-12-07T08:08:03;20.73;;;13.18;;
40537;SDS011;27925;41.874;12.526;2023-12-07T08:10:29;24.98;;;13.55;;
40537;SDS011;27925;41.874;12.526;2023-12-07T08:12:55;24.67;;;13.35;;
40537;SDS011;27925;41.874;12.526;2023-12-07T08:15:21;23.20;;;13.15;;
40537;SDS011;27925;41.874;12.526;2023-12-07T08:17:46;22.25;;;13.48;;
40537;SDS011;27925;41.874;12.526;2023-12-07T08:20:12;23.75;;;13.13;;
40537;SDS011;27925;41.874;12.526;2023-12-07T08:22:39;22.05;;;12.82;;
40537;SDS011;27925;41.874;12.526;2023-12-07T08:25:06;25.27;;;13.80;;
40537;SDS011;27925;41.874;12.526;2023-12-07T08:27:34;25.05;;;14.00;;
40537;SDS011;27925;41.874;12.526;2023-12-07T08:30:03;21.55;;;13.68;;
40537;SDS011;27925;41.874;12.526;2023-12-07T08:32:29;30.27;;;13.45;;
40537;SDS011;27925;41.874;12.526;2023-12-07T08:34:56;22.38;;;12.63;;
40537;SDS011;27925;41.874;12.526;2023-12-07T08:37:21;19.08;;;13.65;;
40537;SDS011;27925;41.874;12.526;2023-12-07T08:39:47;21.83;;;13.85;;
40537;SDS011;27925;41.874;12.526;2023-12-07T08:42:14;20.50;;;13.32;;
40537;SDS011;27925;41.874;12.526;2023-12-07T08:44:39;21.27;;;13.00;;
40537;SDS011;27925;41.874;12.526;2023-12-07T08:47:06;23.40;;;14.20;;
40537;SDS011;27925;41.874;12.526;2023-12-07T08:49:31;21.67;;;13.95;;
40537;SDS011;27925;41.874;12.526;2023-12-07T08:51:57;21.08;;;13.63;;
40537;SDS011;27925;41.874;12.526;2023-12-07T08:54:23;19.92;;;13.70;;
40537;SDS011;27925;41.874;12.526;2023-12-07T08:56:49;20.75;;;12.57;;
40537;SDS011;27925;41.874;12.526;2023-12-07T08:59:16;18.15;;;12.90;;
40537;SDS011;27925;41.874;12.526;2023-12-07T09:01:41;20.02;;;13.40;;
40537;SDS011;27925;41.874;12.526;2023-12-07T09:04:07;19.20;;;13.02;;
40537;SDS011;27925;41.874;12.526;2023-12-07T09:06:33;25.73;;;12.85;;
40537;SDS011;27925;41.874;12.526;2023-12-07T09:08:59;21.52;;;12.50;;
40537;SDS011;27925;41.874;12.526;2023-12-07T09:11:25;19.25;;;13.15;;
40537;SDS011;27925;41.874;12.526;2023-12-07T09:13:50;19.50;;;11.88;;
40537;SDS011;27925;41.874;12.526;2023-12-07T09:16:16;18.95;;;13.00;;
40537;SDS011;27925;41.874;12.526;2023-12-07T09:18:42;21.08;;;13.07;;
40537;SDS011;27925;41.874;12.526;2023-12-07T09:21:10;19.17;;;13.25;;
40537;SDS011;27925;41.874;12.526;2023-12-07T09:23:35;16.83;;;12.65;;
40537;SDS011;27925;41.874;12.526;2023-12-07T09:26:02;20.85;;;12.48;;
40537;SDS011;27925;41.874;12.526;2023-12-07T09:28:28;19.00;;;13.07;;
40537;SDS011;27925;41.874;12.526;2023-12-07T09:30:54;21.63;;;13.70;;
40537;SDS011;27925;41.874;12.526;2023-12-07T09:33:20;19.13;;;13.65;;
40537;SDS011;27925;41.874;12.526;2023-12-07T09:35:45;19.98;;;13.07;;
40537;SDS011;27925;41.874;12.526;2023-12-07T09:38:12;21.27;;;12.55;;
40537;SDS011;27925;41.874;12.526;2023-12-07T09:40:38;16.70;;;11.98;;
40537;SDS011;27925;41.874;12.526;2023-12-07T09:43:03;16.67;;;12.13;;
40537;SDS011;27925;41.874;12.526;2023-12-07T09:45:29;17.63;;;12.85;;
40537;SDS011;27925;41.874;12.526;2023-12-07T09:47:55;17.35;;;12.63;;
40537;SDS011;27925;41.874;12.526;2023-12-07T09:50:21;18.20;;;12.05;;
40537;SDS011;27925;41.874;12.526;2023-12-07T09:52:53;17.95;;;12.05;;
40537;SDS011;27925;41.874;12.526;2023-12-07T09:55:21;19.48;;;12.25;;
40537;SDS011;27925;41.874;12.526;2023-12-07T09:57:47;18.65;;;11.43;;
40537;SDS011;27925;41.874;12.526;2023-12-07T10:00:15;16.92;;;11.95;;
40537;SDS011;27925;41.874;12.526;2023-12-07T10:02:42;17.10;;;11.38;;
40537;SDS011;27925;41.874;12.526;2023-12-07T10:05:09;15.27;;;11.02;;
40537;SDS011;27925;41.874;12.526;2023-12-07T10:07:36;16.35;;;11.32;;
40537;SDS011;27925;41.874;12.526;2023-12-07T10:10:05;16.38;;;9.88;;
40537;SDS011;27925;41.874;12.526;2023-12-07T10:12:32;16.30;;;10.30;;
40537;SDS011;27925;41.874;12.526;2023-12-07T10:15:07;13.82;;;9.98;;
40537;SDS011;27925;41.874;12.526;2023-12-07T10:20:17;15.25;;;10.35;;
40537;SDS011;27925;41.874;12.526;2023-12-07T10:22:49;17.70;;;10.45;;
40537;SDS011;27925;41.874;12.526;2023-12-07T10:25:33;15.18;;;9.95;;
40537;SDS011;27925;41.874;12.526;2023-12-07T10:28:09;17.33;;;11.07;;
40537;SDS011;27925;41.874;12.526;2023-12-07T10:30:39;17.67;;;10.63;;
40537;SDS011;27925;41.874;12.526;2023-12-07T10:33:06;14.93;;;9.75;;
40537;SDS011;27925;41.874;12.526;2023-12-07T10:35:33;14.00;;;9.30;;
40537;SDS011;27925;41.874;12.526;2023-12-07T10:40:33;15.00;;;9.85;;
40537;SDS011;27925;41.874;12.526;2023-12-07T10:43:00;13.55;;;9.43;;
40537;SDS011;27925;41.874;12.526;2023-12-07T10:45:33;12.85;;;8.38;;
40537;SDS011;27925;41.874;12.526;2023-12-07T10:48:03;15.48;;;8.63;;
40537;SDS011;27925;41.874;12.526;2023-12-07T10:50:50;12.68;;;8.57;;
40537;SDS011;27925;41.874;12.526;2023-12-07T10:53:26;14.05;;;9.60;;
40537;SDS011;27925;41.874;12.526;2023-12-07T10:55:56;12.63;;;9.13;;
40537;SDS011;27925;41.874;12.526;2023-12-07T10:58:25;17.95;;;9.68;;
40537;SDS011;27925;41.874;12.526;2023-12-07T11:00:55;15.85;;;8.98;;
40537;SDS011;27925;41.874;12.526;2023-12-07T11:03:22;12.05;;;8.63;;
40537;SDS011;27925;41.874;12.526;2023-12-07T11:05:50;16.17;;;8.25;;
40537;SDS011;27925;41.874;12.526;2023-12-07T11:08:33;12.35;;;8.82;;
40537;SDS011;27925;41.874;12.526;2023-12-07T11:14:06;15.57;;;10.50;;
40537;SDS011;27925;41.874;12.526;2023-12-07T11:16:35;18.00;;;9.80;;
40537;SDS011;27925;41.874;12.526;2023-12-07T11:19:03;15.05;;;9.90;;
40537;SDS011;27925;41.874;12.526;2023-12-07T11:21:30;15.75;;;9.50;;
40537;SDS011;27925;41.874;12.526;2023-12-07T11:23:59;15.60;;;9.75;;
40537;SDS011;27925;41.874;12.526;2023-12-07T11:26:29;15.23;;;10.35;;
40537;SDS011;27925;41.874;12.526;2023-12-07T11:28:56;18.92;;;9.68;;
40537;SDS011;27925;41.874;12.526;2023-12-07T11:31:23;15.80;;;9.93;;
40537;SDS011;27925;41.874;12.526;2023-12-07T11:33:52;13.40;;;9.15;;
40537;SDS011;27925;41.874;12.526;2023-12-07T11:36:18;15.90;;;10.80;;
40537;SDS011;27925;41.874;12.526;2023-12-07T11:41:34;16.13;;;9.35;;
40537;SDS011;27925;41.874;12.526;2023-12-07T11:44:05;16.90;;;10.40;;
40537;SDS011;27925;41.874;12.526;2023-12-07T11:46:32;13.52;;;9.77;;
40537;SDS011;27925;41.874;12.526;2023-12-07T11:49:03;15.15;;;10.15;;
40537;SDS011;27925;41.874;12.526;2023-12-07T11:51:30;17.00;;;11.05;;
40537;SDS011;27925;41.874;12.526;2023-12-07T11:53:57;15.82;;;10.73;;
40537;SDS011;27925;41.874;12.526;2023-12-07T11:56:23;13.15;;;8.57;;
40537;SDS011;27925;41.874;12.526;2023-12-07T11:58:50;12.75;;;8.77;;
40537;SDS011;27925;41.874;12.526;2023-12-07T12:01:17;13.70;;;8.10;;
40537;SDS011;27925;41.874;12.526;2023-12-07T12:03:44;11.68;;;8.07;;
40537;SDS011;27925;41.874;12.526;2023-12-07T12:06:12;11.85;;;8.30;;
40537;SDS011;27925;41.874;12.526;2023-12-07T12:08:39;11.60;;;7.15;;
40537;SDS011;27925;41.874;12.526;2023-12-07T12:11:07;11.27;;;7.10;;
40537;SDS011;27925;41.874;12.526;2023-12-07T12:13:35;13.65;;;7.88;;
40537;SDS011;27925;41.874;12.526;2023-12-07T12:16:05;12.13;;;7.80;;
40537;SDS011;27925;41.874;12.526;2023-12-07T12:18:32;11.07;;;7.07;;
40537;SDS011;27925;41.874;12.526;2023-12-07T12:20:59;12.30;;;7.70;;
40537;SDS011;27925;41.874;12.526;2023-12-07T12:23:26;16.38;;;8.38;;
40537;SDS011;27925;41.874;12.526;2023-12-07T12:25:51;14.38;;;7.90;;
40537;SDS011;27925;41.874;12.526;2023-12-07T12:28:19;13.45;;;7.75;;
40537;SDS011;27925;41.874;12.526;2023-12-07T12:30:48;12.27;;;7.95;;
40537;SDS011;27925;41.874;12.526;2023-12-07T12:33:15;13.75;;;8.98;;
40537;SDS011;27925;41.874;12.526;2023-12-07T12:35:42;11.35;;;7.47;;
40537;SDS011;27925;41.874;12.526;2023-12-07T12:38:09;11.48;;;7.70;;
40537;SDS011;27925;41.874;12.526;2023-12-07T12:40:36;20.60;;;7.95;;
40537;SDS011;27925;41.874;12.526;2023-12-07T12:43:03;10.45;;;7.18;;
40537;SDS011;27925;41.874;12.526;2023-12-07T12:45:32;14.45;;;7.05;;
40537;SDS011;27925;41.874;12.526;2023-12-07T12:47:59;11.50;;;6.95;;
40537;SDS011;27925;41.874;12.526;2023-12-07T12:50:39;13.57;;;7.45;;
40537;SDS011;27925;41.874;12.526;2023-12-07T12:53:06;13.35;;;6.88;;
40537;SDS011;27925;41.874;12.526;2023-12-07T12:55:35;10.50;;;6.57;;
40537;SDS011;27925;41.874;12.526;2023-12-07T12:58:01;12.98;;;6.60;;
40537;SDS011;27925;41.874;12.526;2023-12-07T13:00:30;10.20;;;6.80;;
40537;SDS011;27925;41.874;12.526;2023-12-07T13:03:03;9.82;;;6.40;;
40537;SDS011;27925;41.874;12.526;2023-12-07T13:05:29;10.75;;;6.95;;
40537;SDS011;27925;41.874;12.526;2023-12-07T13:07:58;13.85;;;8.45;;
40537;SDS011;27925;41.874;12.526;2023-12-07T13:10:26;13.43;;;7.80;;
40537;SDS011;27925;41.874;12.526;2023-12-07T13:12:52;10.50;;;6.88;;
40537;SDS011;27925;41.874;12.526;2023-12-07T13:15:18;9.70;;;6.03;;
40537;SDS011;27925;41.874;12.526;2023-12-07T13:17:44;13.15;;;6.20;;
40537;SDS011;27925;41.874;12.526;2023-12-07T13:20:11;9.40;;;5.50;;
40537;SDS011;27925;41.874;12.526;2023-12-07T13:22:40;9.25;;;5.88;;
40537;SDS011;27925;41.874;12.526;2023-12-07T13:25:11;8.05;;;4.63;;
40537;SDS011;27925;41.874;12.526;2023-12-07T13:27:41;11.00;;;5.47;;
40537;SDS011;27925;41.874;12.526;2023-12-07T13:30:11;7.63;;;4.88;;
40537;SDS011;27925;41.874;12.526;2023-12-07T13:32:37;8.55;;;5.30;;
40537;SDS011;27925;41.874;12.526;2023-12-07T13:35:05;8.95;;;5.10;;
40537;SDS011;27925;41.874;12.526;2023-12-07T13:37:32;8.25;;;4.95;;
40537;SDS011;27925;41.874;12.526;2023-12-07T13:40:00;7.75;;;5.10;;
40537;SDS011;27925;41.874;12.526;2023-12-07T13:42:29;8.38;;;5.05;;
40537;SDS011;27925;41.874;12.526;2023-12-07T13:44:57;11.25;;;5.30;;
40537;SDS011;27925;41.874;12.526;2023-12-07T13:47:25;10.40;;;5.13;;
40537;SDS011;27925;41.874;12.526;2023-12-07T13:49:59;8.57;;;5.22;;
40537;SDS011;27925;41.874;12.526;2023-12-07T13:52:26;8.10;;;5.18;;
40537;SDS011;27925;41.874;12.526;2023-12-07T13:54:54;7.75;;;5.18;;
40537;SDS011;27925;41.874;12.526;2023-12-07T13:57:20;8.48;;;4.90;;
40537;SDS011;27925;41.874;12.526;2023-12-07T13:59:52;7.03;;;4.82;;
40537;SDS011;27925;41.874;12.526;2023-12-07T14:02:19;10.63;;;5.13;;
40537;SDS011;27925;41.874;12.526;2023-12-07T14:04:46;12.63;;;6.38;;
40537;SDS011;27925;41.874;12.526;2023-12-07T14:07:20;9.68;;;5.53;;
40537;SDS011;27925;41.874;12.526;2023-12-07T14:09:49;7.90;;;5.03;;
40537;SDS011;27925;41.874;12.526;2023-12-07T14:12:16;7.32;;;4.82;;
40537;SDS011;27925;41.874;12.526;2023-12-07T14:14:45;8.15;;;4.90;;
40537;SDS011;27925;41.874;12.526;2023-12-07T14:17:14;9.40;;;5.40;;
40537;SDS011;27925;41.874;12.526;2023-12-07T14:19:41;7.75;;;4.80;;
40537;SDS011;27925;41.874;12.526;2023-12-07T14:22:08;7.10;;;4.53;;
40537;SDS011;27925;41.874;12.526;2023-12-07T14:24:35;9.20;;;4.50;;
40537;SDS011;27925;41.874;12.526;2023-12-07T14:27:05;7.32;;;4.32;;